sensor_id;sensor_type;location;lat;lon;timestamp;P1;durP1;ratioP1;P2;durP2;ratioP2
65558;SDS011;52203;51.998;5.140;2022-09-12T00:01:06;27.55;;;15.18;;
65558;SDS011;52203;51.998;5.140;2022-09-12T00:03:34;26.05;;;14.65;;
65558;SDS011;52203;51.998;5.140;2022-09-12T00:06:06;26.40;;;14.48;;
65558;SDS011;52203;51.998;5.140;2022-09-12T00:08:33;24.08;;;13.63;;
65558;SDS011;52203;51.998;5.140;2022-09-12T00:11:01;27.60;;;14.98;;
65558;SDS011;52203;51.998;5.140;2022-09-12T00:13:32;26.95;;;15.00;;
65558;SDS011;52203;51.998;5.140;2022-09-12T00:15:58;17.55;;;10.27;;
65558;SDS011;52203;51.998;5.140;2022-09-12T00:18:24;26.15;;;14.68;;
65558;SDS011;52203;51.998;5.140;2022-09-12T00:20:49;16.60;;;9.80;;
65558;SDS011;52203;51.998;5.140;2022-09-12T00:23:15;25.58;;;14.52;;
65558;SDS011;52203;51.998;5.140;2022-09-12T00:25:41;24.42;;;13.40;;
65558;SDS011;52203;51.998;5.140;2022-09-12T00:28:11;24.50;;;13.85;;
65558;SDS011;52203;51.998;5.140;2022-09-12T00:30:41;16.58;;;10.30;;
65558;SDS011;52203;51.998;5.140;2022-09-12T00:33:08;27.88;;;15.63;;
65558;SDS011;52203;51.998;5.140;2022-09-12T00:35:45;28.65;;;15.48;;
65558;SDS011;52203;51.998;5.140;2022-09-12T00:38:12;24.67;;;12.77;;
65558;SDS011;52203;51.998;5.140;2022-09-12T00:40:38;17.35;;;10.85;;
65558;SDS011;52203;51.998;5.140;2022-09-12T00:43:04;32.95;;;15.75;;
65558;SDS011;52203;51.998;5.140;2022-09-12T00:45:30;26.23;;;14.52;;
65558;SDS011;52203;51.998;5.140;2022-09-12T00:47:57;26.13;;;14.75;;
65558;SDS011;52203;51.998;5.140;2022-09-12T00:50:27;24.63;;;13.32;;
65558;SDS011;52203;51.998;5.140;2022-09-12T00:52:57;24.15;;;13.35;;
65558;SDS011;52203;51.998;5.140;2022-09-12T00:55:34;25.95;;;12.32;;
65558;SDS011;52203;51.998;5.140;2022-09-12T00:58:13;27.40;;;13.13;;
65558;SDS011;52203;51.998;5.140;2022-09-12T01:00:44;25.05;;;13.23;;
65558;SDS011;52203;51.998;5.140;2022-09-12T01:03:12;26.10;;;12.90;;
65558;SDS011;52203;51.998;5.140;2022-09-12T01:06:04;24.98;;;13.95;;
65558;SDS011;52203;51.998;5.140;2022-09-12T01:08:29;17.13;;;8.65;;
65558;SDS011;52203;51.998;5.140;2022-09-12T01:10:57;26.00;;;13.88;;
65558;SDS011;52203;51.998;5.140;2022-09-12T01:13:22;28.38;;;15.05;;
65558;SDS011;52203;51.998;5.140;2022-09-12T01:15:48;22.73;;;12.63;;
65558;SDS011;52203;51.998;5.140;2022-09-12T01:34:48;26.25;;;13.57;;
65558;SDS011;52203;51.998;5.140;2022-09-12T01:37:47;20.27;;;11.10;;
65558;SDS011;52203;51.998;5.140;2022-09-12T01:40:32;27.70;;;12.77;;
65558;SDS011;52203;51.998;5.140;2022-09-12T01:43:19;25.20;;;13.85;;
65558;SDS011;52203;51.998;5.140;2022-09-12T01:49:50;21.08;;;12.15;;
65558;SDS011;52203;51.998;5.140;2022-09-12T01:52:02;19.77;;;10.90;;
65558;SDS011;52203;51.998;5.140;2022-09-12T01:54:36;16.80;;;8.63;;
65558;SDS011;52203;51.998;5.140;2022-09-12T01:57:17;16.65;;;8.63;;
65558;SDS011;52203;51.998;5.140;2022-09-12T01:59:50;26.33;;;13.70;;
65558;SDS011;52203;51.998;5.140;2022-09-12T02:02:24;29.35;;;14.32;;
65558;SDS011;52203;51.998;5.140;2022-09-12T02:05:01;31.17;;;15.32;;
65558;SDS011;52203;51.998;5.140;2022-09-12T02:07:36;20.15;;;12.05;;
65558;SDS011;52203;51.998;5.140;2022-09-12T02:12:39;25.00;;;13.75;;
65558;SDS011;52203;51.998;5.140;2022-09-12T02:15:17;28.98;;;14.73;;
65558;SDS011;52203;51.998;5.140;2022-09-12T02:17:46;19.95;;;9.60;;
65558;SDS011;52203;51.998;5.140;2022-09-12T02:20:17;20.15;;;11.43;;
65558;SDS011;52203;51.998;5.140;2022-09-12T02:22:46;27.85;;;14.75;;
65558;SDS011;52203;51.998;5.140;2022-09-12T02:25:14;31.13;;;14.25;;
65558;SDS011;52203;51.998;5.140;2022-09-12T02:27:44;31.70;;;16.33;;
65558;SDS011;52203;51.998;5.140;2022-09-12T02:30:15;28.55;;;15.43;;
65558;SDS011;52203;51.998;5.140;2022-09-12T02:35:51;35.17;;;17.67;;
65558;SDS011;52203;51.998;5.140;2022-09-12T02:38:37;37.22;;;18.23;;
65558;SDS011;52203;51.998;5.140;2022-09-12T02:41:08;22.80;;;11.90;;
65558;SDS011;52203;51.998;5.140;2022-09-12T02:43:34;29.02;;;15.88;;
65558;SDS011;52203;51.998;5.140;2022-09-12T02:46:02;38.10;;;18.58;;
65558;SDS011;52203;51.998;5.140;2022-09-12T02:48:33;29.83;;;13.75;;
65558;SDS011;52203;51.998;5.140;2022-09-12T02:51:03;27.15;;;14.15;;
65558;SDS011;52203;51.998;5.140;2022-09-12T02:53:29;28.95;;;14.50;;
65558;SDS011;52203;51.998;5.140;2022-09-12T02:55:55;20.75;;;11.02;;
65558;SDS011;52203;51.998;5.140;2022-09-12T02:58:23;25.67;;;13.35;;
65558;SDS011;52203;51.998;5.140;2022-09-12T03:00:55;37.42;;;18.60;;
65558;SDS011;52203;51.998;5.140;2022-09-12T03:05:56;41.30;;;20.42;;
65558;SDS011;52203;51.998;5.140;2022-09-12T03:14:30;30.40;;;14.25;;
65558;SDS011;52203;51.998;5.140;2022-09-12T03:25:24;29.20;;;15.10;;
65558;SDS011;52203;51.998;5.140;2022-09-12T03:27:58;26.48;;;13.77;;
65558;SDS011;52203;51.998;5.140;2022-09-12T03:30:36;37.05;;;18.27;;
65558;SDS011;52203;51.998;5.140;2022-09-12T03:33:03;30.33;;;15.73;;
65558;SDS011;52203;51.998;5.140;2022-09-12T03:35:29;41.45;;;21.25;;
65558;SDS011;52203;51.998;5.140;2022-09-12T03:37:55;33.72;;;16.83;;
65558;SDS011;52203;51.998;5.140;2022-09-12T03:40:20;30.05;;;13.73;;
65558;SDS011;52203;51.998;5.140;2022-09-12T03:42:46;38.08;;;19.13;;
65558;SDS011;52203;51.998;5.140;2022-09-12T03:45:11;35.88;;;18.20;;
65558;SDS011;52203;51.998;5.140;2022-09-12T03:47:37;37.08;;;18.45;;
65558;SDS011;52203;51.998;5.140;2022-09-12T03:50:04;33.22;;;15.52;;
65558;SDS011;52203;51.998;5.140;2022-09-12T03:52:30;38.47;;;19.30;;
65558;SDS011;52203;51.998;5.140;2022-09-12T03:54:56;34.83;;;16.67;;
65558;SDS011;52203;51.998;5.140;2022-09-12T03:57:21;27.27;;;13.70;;
65558;SDS011;52203;51.998;5.140;2022-09-12T03:59:47;31.38;;;15.45;;
65558;SDS011;52203;51.998;5.140;2022-09-12T04:02:14;27.92;;;14.45;;
65558;SDS011;52203;51.998;5.140;2022-09-12T04:04:40;24.33;;;12.48;;
65558;SDS011;52203;51.998;5.140;2022-09-12T04:07:07;24.20;;;12.93;;
65558;SDS011;52203;51.998;5.140;2022-09-12T04:09:36;38.85;;;19.13;;
65558;SDS011;52203;51.998;5.140;2022-09-12T04:12:01;34.38;;;17.42;;
65558;SDS011;52203;51.998;5.140;2022-09-12T04:14:27;38.03;;;18.60;;
65558;SDS011;52203;51.998;5.140;2022-09-12T04:16:52;30.67;;;15.82;;
65558;SDS011;52203;51.998;5.140;2022-09-12T04:19:18;32.60;;;16.10;;
65558;SDS011;52203;51.998;5.140;2022-09-12T04:21:43;37.83;;;18.67;;
65558;SDS011;52203;51.998;5.140;2022-09-12T04:24:09;31.42;;;15.27;;
65558;SDS011;52203;51.998;5.140;2022-09-12T04:26:34;25.02;;;13.30;;
65558;SDS011;52203;51.998;5.140;2022-09-12T04:29:00;24.95;;;12.95;;
65558;SDS011;52203;51.998;5.140;2022-09-12T04:31:25;39.95;;;17.45;;
65558;SDS011;52203;51.998;5.140;2022-09-12T04:33:55;42.53;;;20.77;;
65558;SDS011;52203;51.998;5.140;2022-09-12T04:36:23;44.17;;;20.73;;
65558;SDS011;52203;51.998;5.140;2022-09-12T04:38:50;36.65;;;17.95;;
65558;SDS011;52203;51.998;5.140;2022-09-12T04:41:17;27.00;;;14.02;;
65558;SDS011;52203;51.998;5.140;2022-09-12T04:43:53;33.72;;;16.13;;
65558;SDS011;52203;51.998;5.140;2022-09-12T04:46:23;44.08;;;21.42;;
65558;SDS011;52203;51.998;5.140;2022-09-12T04:48:49;41.38;;;19.75;;
65558;SDS011;52203;51.998;5.140;2022-09-12T04:51:16;47.78;;;22.40;;
65558;SDS011;52203;51.998;5.140;2022-09-12T04:53:48;32.75;;;14.98;;
65558;SDS011;52203;51.998;5.140;2022-09-12T04:56:16;45.47;;;22.20;;
65558;SDS011;52203;51.998;5.140;2022-09-12T04:58:42;48.40;;;21.52;;
65558;SDS011;52203;51.998;5.140;2022-09-12T05:01:17;40.88;;;20.83;;
65558;SDS011;52203;51.998;5.140;2022-09-12T05:03:44;28.13;;;14.55;;
65558;SDS011;52203;51.998;5.140;2022-09-12T05:06:12;33.42;;;16.42;;
65558;SDS011;52203;51.998;5.140;2022-09-12T05:08:39;39.80;;;20.13;;
65558;SDS011;52203;51.998;5.140;2022-09-12T05:11:09;34.38;;;16.40;;
65558;SDS011;52203;51.998;5.140;2022-09-12T05:13:36;36.58;;;16.40;;
65558;SDS011;52203;51.998;5.140;2022-09-12T05:16:03;31.95;;;16.85;;
65558;SDS011;52203;51.998;5.140;2022-09-12T05:18:30;28.88;;;14.75;;
65558;SDS011;52203;51.998;5.140;2022-09-12T05:21:01;29.55;;;14.93;;
65558;SDS011;52203;51.998;5.140;2022-09-12T05:23:28;42.20;;;20.75;;
65558;SDS011;52203;51.998;5.140;2022-09-12T05:25:55;39.65;;;19.42;;
65558;SDS011;52203;51.998;5.140;2022-09-12T05:28:23;30.40;;;15.60;;
65558;SDS011;52203;51.998;5.140;2022-09-12T05:31:50;32.28;;;15.55;;
65558;SDS011;52203;51.998;5.140;2022-09-12T05:33:47;32.78;;;16.88;;
65558;SDS011;52203;51.998;5.140;2022-09-12T05:36:21;41.80;;;19.35;;
65558;SDS011;52203;51.998;5.140;2022-09-12T05:38:48;29.35;;;14.63;;
65558;SDS011;52203;51.998;5.140;2022-09-12T05:41:17;26.77;;;13.27;;
65558;SDS011;52203;51.998;5.140;2022-09-12T05:43:50;38.65;;;19.45;;
65558;SDS011;52203;51.998;5.140;2022-09-12T05:46:18;35.78;;;17.15;;
65558;SDS011;52203;51.998;5.140;2022-09-12T05:48:45;36.85;;;17.80;;
65558;SDS011;52203;51.998;5.140;2022-09-12T05:51:12;38.30;;;18.08;;
65558;SDS011;52203;51.998;5.140;2022-09-12T05:53:46;43.38;;;21.63;;
65558;SDS011;52203;51.998;5.140;2022-09-12T05:56:21;30.10;;;14.52;;
65558;SDS011;52203;51.998;5.140;2022-09-12T05:59:09;36.30;;;17.20;;
65558;SDS011;52203;51.998;5.140;2022-09-12T06:01:41;31.55;;;14.77;;
65558;SDS011;52203;51.998;5.140;2022-09-12T06:04:07;29.52;;;12.80;;
65558;SDS011;52203;51.998;5.140;2022-09-12T06:06:40;28.70;;;14.35;;
65558;SDS011;52203;51.998;5.140;2022-09-12T06:09:08;28.58;;;13.50;;
65558;SDS011;52203;51.998;5.140;2022-09-12T06:11:35;30.15;;;15.40;;
65558;SDS011;52203;51.998;5.140;2022-09-12T06:14:04;35.35;;;16.50;;
65558;SDS011;52203;51.998;5.140;2022-09-12T06:16:30;42.75;;;19.02;;
65558;SDS011;52203;51.998;5.140;2022-09-12T06:18:58;36.72;;;17.60;;
65558;SDS011;52203;51.998;5.140;2022-09-12T06:21:26;36.97;;;17.17;;
65558;SDS011;52203;51.998;5.140;2022-09-12T06:23:53;34.78;;;16.23;;
65558;SDS011;52203;51.998;5.140;2022-09-12T06:26:19;38.72;;;17.50;;
65558;SDS011;52203;51.998;5.140;2022-09-12T06:28:47;38.45;;;18.05;;
65558;SDS011;52203;51.998;5.140;2022-09-12T06:31:18;34.88;;;17.15;;
65558;SDS011;52203;51.998;5.140;2022-09-12T06:33:46;41.90;;;17.92;;
65558;SDS011;52203;51.998;5.140;2022-09-12T06:36:15;36.88;;;17.80;;
65558;SDS011;52203;51.998;5.140;2022-09-12T06:38:42;37.15;;;18.88;;
65558;SDS011;52203;51.998;5.140;2022-09-12T06:41:11;40.40;;;18.63;;
65558;SDS011;52203;51.998;5.140;2022-09-12T06:43:38;40.60;;;19.17;;
65558;SDS011;52203;51.998;5.140;2022-09-12T06:46:05;40.15;;;19.23;;
65558;SDS011;52203;51.998;5.140;2022-09-12T06:48:31;40.40;;;19.75;;
65558;SDS011;52203;51.998;5.140;2022-09-12T06:50:58;38.55;;;19.42;;
65558;SDS011;52203;51.998;5.140;2022-09-12T06:53:26;46.08;;;22.15;;
65558;SDS011;52203;51.998;5.140;2022-09-12T06:58:29;40.80;;;20.30;;
65558;SDS011;52203;51.998;5.140;2022-09-12T07:03:30;55.00;;;23.85;;
65558;SDS011;52203;51.998;5.140;2022-09-12T07:05:56;44.70;;;20.88;;
65558;SDS011;52203;51.998;5.140;2022-09-12T07:08:25;57.95;;;25.85;;
65558;SDS011;52203;51.998;5.140;2022-09-12T07:10:53;54.78;;;25.05;;
65558;SDS011;52203;51.998;5.140;2022-09-12T07:13:19;56.08;;;25.60;;
65558;SDS011;52203;51.998;5.140;2022-09-12T07:15:44;54.80;;;24.73;;
65558;SDS011;52203;51.998;5.140;2022-09-12T07:18:09;57.15;;;25.58;;
65558;SDS011;52203;51.998;5.140;2022-09-12T07:20:35;55.90;;;25.08;;
65558;SDS011;52203;51.998;5.140;2022-09-12T07:23:01;51.70;;;24.23;;
65558;SDS011;52203;51.998;5.140;2022-09-12T07:25:26;49.35;;;23.40;;
65558;SDS011;52203;51.998;5.140;2022-09-12T07:27:52;51.45;;;23.67;;
65558;SDS011;52203;51.998;5.140;2022-09-12T07:30:21;44.60;;;23.30;;
65558;SDS011;52203;51.998;5.140;2022-09-12T07:32:50;47.70;;;22.40;;
65558;SDS011;52203;51.998;5.140;2022-09-12T07:35:17;50.45;;;25.17;;
65558;SDS011;52203;51.998;5.140;2022-09-12T07:37:42;52.15;;;27.13;;
65558;SDS011;52203;51.998;5.140;2022-09-12T07:40:08;52.03;;;27.85;;
65558;SDS011;52203;51.998;5.140;2022-09-12T07:42:34;48.20;;;23.60;;
65558;SDS011;52203;51.998;5.140;2022-09-12T07:45:00;49.55;;;25.23;;
65558;SDS011;52203;51.998;5.140;2022-09-12T07:47:25;44.67;;;23.48;;
65558;SDS011;52203;51.998;5.140;2022-09-12T07:49:50;46.92;;;22.17;;
65558;SDS011;52203;51.998;5.140;2022-09-12T07:52:16;43.38;;;22.70;;
65558;SDS011;52203;51.998;5.140;2022-09-12T07:54:42;47.15;;;23.35;;
65558;SDS011;52203;51.998;5.140;2022-09-12T07:57:08;43.72;;;23.23;;
65558;SDS011;52203;51.998;5.140;2022-09-12T07:59:34;42.30;;;22.67;;
65558;SDS011;52203;51.998;5.140;2022-09-12T08:02:00;43.05;;;24.40;;
65558;SDS011;52203;51.998;5.140;2022-09-12T08:04:25;46.25;;;25.70;;
65558;SDS011;52203;51.998;5.140;2022-09-12T08:06:51;56.08;;;23.95;;
65558;SDS011;52203;51.998;5.140;2022-09-12T08:09:17;48.38;;;23.13;;
65558;SDS011;52203;51.998;5.140;2022-09-12T08:11:42;40.85;;;21.40;;
65558;SDS011;52203;51.998;5.140;2022-09-12T08:14:08;46.47;;;24.15;;
65558;SDS011;52203;51.998;5.140;2022-09-12T08:16:34;46.70;;;23.05;;
65558;SDS011;52203;51.998;5.140;2022-09-12T08:19:00;52.63;;;22.05;;
65558;SDS011;52203;51.998;5.140;2022-09-12T08:21:27;37.33;;;21.25;;
65558;SDS011;52203;51.998;5.140;2022-09-12T08:23:58;39.67;;;20.98;;
65558;SDS011;52203;51.998;5.140;2022-09-12T08:26:25;34.58;;;19.70;;
65558;SDS011;52203;51.998;5.140;2022-09-12T08:28:51;34.28;;;19.40;;
65558;SDS011;52203;51.998;5.140;2022-09-12T08:31:18;34.38;;;20.67;;
65558;SDS011;52203;51.998;5.140;2022-09-12T08:33:45;35.13;;;20.25;;
65558;SDS011;52203;51.998;5.140;2022-09-12T08:36:14;33.45;;;19.95;;
65558;SDS011;52203;51.998;5.140;2022-09-12T08:38:42;30.85;;;19.75;;
65558;SDS011;52203;51.998;5.140;2022-09-12T08:49:49;28.30;;;17.30;;
65558;SDS011;52203;51.998;5.140;2022-09-12T08:54:59;31.42;;;16.02;;
65558;SDS011;52203;51.998;5.140;2022-09-12T08:57:26;30.70;;;16.00;;
65558;SDS011;52203;51.998;5.140;2022-09-12T08:59:52;27.67;;;16.15;;
65558;SDS011;52203;51.998;5.140;2022-09-12T09:05:34;43.67;;;18.27;;
65558;SDS011;52203;51.998;5.140;2022-09-12T09:11:17;26.25;;;16.35;;
65558;SDS011;52203;51.998;5.140;2022-09-12T09:14:30;22.73;;;13.98;;
65558;SDS011;52203;51.998;5.140;2022-09-12T09:17:15;29.35;;;15.52;;
65558;SDS011;52203;51.998;5.140;2022-09-12T09:20:09;30.25;;;14.73;;
65558;SDS011;52203;51.998;5.140;2022-09-12T09:22:57;23.05;;;14.40;;
65558;SDS011;52203;51.998;5.140;2022-09-12T09:28:11;31.30;;;13.93;;
65558;SDS011;52203;51.998;5.140;2022-09-12T09:30:44;24.30;;;13.73;;
65558;SDS011;52203;51.998;5.140;2022-09-12T09:33:33;23.17;;;12.80;;
65558;SDS011;52203;51.998;5.140;2022-09-12T09:36:02;25.38;;;12.85;;
65558;SDS011;52203;51.998;5.140;2022-09-12T09:44:20;26.38;;;12.02;;
65558;SDS011;52203;51.998;5.140;2022-09-12T09:46:46;19.55;;;11.50;;
65558;SDS011;52203;51.998;5.140;2022-09-12T09:49:16;18.23;;;12.23;;
65558;SDS011;52203;51.998;5.140;2022-09-12T09:51:42;19.13;;;10.60;;
65558;SDS011;52203;51.998;5.140;2022-09-12T09:54:18;20.77;;;12.35;;
65558;SDS011;52203;51.998;5.140;2022-09-12T09:56:47;18.05;;;11.50;;
65558;SDS011;52203;51.998;5.140;2022-09-12T09:59:17;17.10;;;10.38;;
65558;SDS011;52203;51.998;5.140;2022-09-12T10:01:56;18.98;;;10.13;;
65558;SDS011;52203;51.998;5.140;2022-09-12T10:04:30;17.70;;;11.05;;
65558;SDS011;52203;51.998;5.140;2022-09-12T10:07:02;14.98;;;9.43;;
65558;SDS011;52203;51.998;5.140;2022-09-12T10:09:30;17.42;;;8.85;;
65558;SDS011;52203;51.998;5.140;2022-09-12T10:11:58;29.17;;;11.27;;
65558;SDS011;52203;51.998;5.140;2022-09-12T10:14:39;15.20;;;9.82;;
65558;SDS011;52203;51.998;5.140;2022-09-12T10:17:23;15.02;;;8.55;;
65558;SDS011;52203;51.998;5.140;2022-09-12T10:19:56;15.52;;;8.35;;
65558;SDS011;52203;51.998;5.140;2022-09-12T10:22:23;25.50;;;9.70;;
65558;SDS011;52203;51.998;5.140;2022-09-12T10:24:53;13.57;;;7.72;;
65558;SDS011;52203;51.998;5.140;2022-09-12T10:27:31;14.15;;;7.25;;
65558;SDS011;52203;51.998;5.140;2022-09-12T10:30:02;16.83;;;8.63;;
65558;SDS011;52203;51.998;5.140;2022-09-12T10:32:40;54.47;;;11.73;;
65558;SDS011;52203;51.998;5.140;2022-09-12T10:35:16;11.98;;;7.50;;
65558;SDS011;52203;51.998;5.140;2022-09-12T10:38:04;19.63;;;8.20;;
65558;SDS011;52203;51.998;5.140;2022-09-12T10:40:41;15.25;;;8.50;;
65558;SDS011;52203;51.998;5.140;2022-09-12T10:43:22;13.25;;;6.45;;
65558;SDS011;52203;51.998;5.140;2022-09-12T10:48:41;10.25;;;5.90;;
65558;SDS011;52203;51.998;5.140;2022-09-12T10:53:49;10.85;;;6.75;;
65558;SDS011;52203;51.998;5.140;2022-09-12T10:56:20;9.43;;;4.72;;
65558;SDS011;52203;51.998;5.140;2022-09-12T11:01:43;10.13;;;6.10;;
65558;SDS011;52203;51.998;5.140;2022-09-12T11:15:34;9.57;;;6.50;;
65558;SDS011;52203;51.998;5.140;2022-09-12T11:25:46;9.95;;;6.32;;
65558;SDS011;52203;51.998;5.140;2022-09-12T11:28:23;13.00;;;7.03;;
65558;SDS011;52203;51.998;5.140;2022-09-12T11:33:43;14.82;;;7.40;;
65558;SDS011;52203;51.998;5.140;2022-09-12T11:36:26;33.97;;;8.50;;
65558;SDS011;52203;51.998;5.140;2022-09-12T11:39:01;15.48;;;5.68;;
65558;SDS011;52203;51.998;5.140;2022-09-12T11:41:35;9.52;;;5.07;;
65558;SDS011;52203;51.998;5.140;2022-09-12T11:47:03;14.00;;;5.68;;
65558;SDS011;52203;51.998;5.140;2022-09-12T11:49:32;12.90;;;5.53;;
65558;SDS011;52203;51.998;5.140;2022-09-12T11:54:40;11.90;;;5.95;;
65558;SDS011;52203;51.998;5.140;2022-09-12T12:05:26;41.10;;;9.00;;
65558;SDS011;52203;51.998;5.140;2022-09-12T12:07:58;21.75;;;6.47;;
65558;SDS011;52203;51.998;5.140;2022-09-12T12:10:36;11.15;;;4.60;;
65558;SDS011;52203;51.998;5.140;2022-09-12T12:13:24;7.57;;;4.57;;
65558;SDS011;52203;51.998;5.140;2022-09-12T12:15:55;7.20;;;4.20;;
65558;SDS011;52203;51.998;5.140;2022-09-12T12:18:25;12.73;;;4.75;;
65558;SDS011;52203;51.998;5.140;2022-09-12T12:20:55;6.78;;;4.10;;
65558;SDS011;52203;51.998;5.140;2022-09-12T12:23:40;6.22;;;4.25;;
65558;SDS011;52203;51.998;5.140;2022-09-12T12:36:54;14.25;;;3.80;;
65558;SDS011;52203;51.998;5.140;2022-09-12T12:41:58;7.32;;;3.78;;
65558;SDS011;52203;51.998;5.140;2022-09-12T12:50:01;6.40;;;3.50;;
65558;SDS011;52203;51.998;5.140;2022-09-12T12:54:57;10.93;;;3.63;;
65558;SDS011;52203;51.998;5.140;2022-09-12T13:00:32;6.20;;;3.00;;
65558;SDS011;52203;51.998;5.140;2022-09-12T13:02:58;7.18;;;4.03;;
65558;SDS011;52203;51.998;5.140;2022-09-12T13:05:29;5.60;;;3.22;;
65558;SDS011;52203;51.998;5.140;2022-09-12T13:10:47;15.57;;;5.30;;
65558;SDS011;52203;51.998;5.140;2022-09-12T13:13:52;11.13;;;3.90;;
65558;SDS011;52203;51.998;5.140;2022-09-12T13:16:35;6.20;;;3.83;;
65558;SDS011;52203;51.998;5.140;2022-09-12T13:19:03;6.60;;;3.13;;
65558;SDS011;52203;51.998;5.140;2022-09-12T13:21:31;4.30;;;3.05;;
65558;SDS011;52203;51.998;5.140;2022-09-12T13:24:01;5.90;;;3.35;;
65558;SDS011;52203;51.998;5.140;2022-09-12T13:26:32;6.10;;;3.35;;
65558;SDS011;52203;51.998;5.140;2022-09-12T13:31:41;6.25;;;3.55;;
65558;SDS011;52203;51.998;5.140;2022-09-12T13:34:08;6.25;;;4.18;;
65558;SDS011;52203;51.998;5.140;2022-09-12T13:39:28;6.32;;;3.30;;
65558;SDS011;52203;51.998;5.140;2022-09-12T13:47:50;6.32;;;3.97;;
65558;SDS011;52203;51.998;5.140;2022-09-12T13:50:27;6.40;;;3.22;;
65558;SDS011;52203;51.998;5.140;2022-09-12T13:52:57;5.70;;;3.20;;
65558;SDS011;52203;51.998;5.140;2022-09-12T13:55:32;5.47;;;3.50;;
65558;SDS011;52203;51.998;5.140;2022-09-12T13:58:05;4.95;;;3.22;;
65558;SDS011;52203;51.998;5.140;2022-09-12T14:00:40;4.93;;;3.08;;
65558;SDS011;52203;51.998;5.140;2022-09-12T14:03:23;5.72;;;3.22;;
65558;SDS011;52203;51.998;5.140;2022-09-12T14:06:09;4.55;;;2.88;;
65558;SDS011;52203;51.998;5.140;2022-09-12T14:08:39;5.55;;;2.65;;
65558;SDS011;52203;51.998;5.140;2022-09-12T14:11:09;6.10;;;2.97;;
65558;SDS011;52203;51.998;5.140;2022-09-12T14:13:36;6.22;;;3.35;;
65558;SDS011;52203;51.998;5.140;2022-09-12T14:16:05;6.47;;;2.88;;
65558;SDS011;52203;51.998;5.140;2022-09-12T14:18:36;7.70;;;3.38;;
65558;SDS011;52203;51.998;5.140;2022-09-12T14:21:07;5.38;;;3.30;;
65558;SDS011;52203;51.998;5.140;2022-09-12T14:23:34;6.07;;;3.07;;
65558;SDS011;52203;51.998;5.140;2022-09-12T14:26:08;4.75;;;3.08;;
65558;SDS011;52203;51.998;5.140;2022-09-12T14:28:40;6.15;;;3.08;;
65558;SDS011;52203;51.998;5.140;2022-09-12T14:31:19;6.95;;;3.00;;
65558;SDS011;52203;51.998;5.140;2022-09-12T14:34:14;6.28;;;2.90;;
65558;SDS011;52203;51.998;5.140;2022-09-12T14:41:41;5.70;;;2.92;;
65558;SDS011;52203;51.998;5.140;2022-09-12T14:44:08;9.95;;;3.30;;
65558;SDS011;52203;51.998;5.140;2022-09-12T14:46:49;12.35;;;4.03;;
65558;SDS011;52203;51.998;5.140;2022-09-12T14:49:19;5.30;;;3.10;;
65558;SDS011;52203;51.998;5.140;2022-09-12T14:51:55;30.95;;;6.15;;
65558;SDS011;52203;51.998;5.140;2022-09-12T14:56:55;5.83;;;3.47;;
65558;SDS011;52203;51.998;5.140;2022-09-12T15:04:45;6.90;;;3.60;;
65558;SDS011;52203;51.998;5.140;2022-09-12T15:07:34;5.72;;;3.08;;
65558;SDS011;52203;51.998;5.140;2022-09-12T15:10:47;5.60;;;3.10;;
65558;SDS011;52203;51.998;5.140;2022-09-12T15:15:38;3.70;;;2.85;;
65558;SDS011;52203;51.998;5.140;2022-09-12T15:18:05;7.78;;;3.10;;
65558;SDS011;52203;51.998;5.140;2022-09-12T15:20:37;7.90;;;3.03;;
65558;SDS011;52203;51.998;5.140;2022-09-12T15:23:05;17.73;;;3.72;;
65558;SDS011;52203;51.998;5.140;2022-09-12T15:25:36;6.68;;;2.60;;
65558;SDS011;52203;51.998;5.140;2022-09-12T15:28:04;5.82;;;2.90;;
65558;SDS011;52203;51.998;5.140;2022-09-12T15:30:37;24.13;;;5.15;;
65558;SDS011;52203;51.998;5.140;2022-09-12T15:33:02;7.25;;;2.80;;
65558;SDS011;52203;51.998;5.140;2022-09-12T15:35:28;7.80;;;2.97;;
65558;SDS011;52203;51.998;5.140;2022-09-12T15:37:56;6.82;;;2.83;;
65558;SDS011;52203;51.998;5.140;2022-09-12T15:40:22;7.38;;;2.83;;
65558;SDS011;52203;51.998;5.140;2022-09-12T15:42:47;5.18;;;2.60;;
65558;SDS011;52203;51.998;5.140;2022-09-12T15:45:21;7.60;;;2.83;;
65558;SDS011;52203;51.998;5.140;2022-09-12T15:47:49;5.75;;;2.67;;
65558;SDS011;52203;51.998;5.140;2022-09-12T15:50:16;11.32;;;3.10;;
65558;SDS011;52203;51.998;5.140;2022-09-12T15:52:41;9.30;;;3.22;;
65558;SDS011;52203;51.998;5.140;2022-09-12T15:55:20;13.45;;;3.85;;
65558;SDS011;52203;51.998;5.140;2022-09-12T15:57:47;6.32;;;2.88;;
65558;SDS011;52203;51.998;5.140;2022-09-12T16:00:14;6.93;;;3.33;;
65558;SDS011;52203;51.998;5.140;2022-09-12T16:02:41;9.68;;;2.75;;
65558;SDS011;52203;51.998;5.140;2022-09-12T16:05:10;5.53;;;2.80;;
65558;SDS011;52203;51.998;5.140;2022-09-12T16:07:39;4.28;;;2.80;;
65558;SDS011;52203;51.998;5.140;2022-09-12T16:10:04;7.43;;;3.05;;
65558;SDS011;52203;51.998;5.140;2022-09-12T16:12:30;6.88;;;2.65;;
65558;SDS011;52203;51.998;5.140;2022-09-12T16:14:55;5.88;;;2.88;;
65558;SDS011;52203;51.998;5.140;2022-09-12T16:17:21;5.75;;;2.75;;
65558;SDS011;52203;51.998;5.140;2022-09-12T16:19:47;5.85;;;3.00;;
65558;SDS011;52203;51.998;5.140;2022-09-12T16:22:14;7.00;;;3.25;;
65558;SDS011;52203;51.998;5.140;2022-09-12T16:24:39;5.65;;;3.00;;
65558;SDS011;52203;51.998;5.140;2022-09-12T16:27:05;9.57;;;3.45;;
65558;SDS011;52203;51.998;5.140;2022-09-12T16:29:30;6.82;;;3.22;;
65558;SDS011;52203;51.998;5.140;2022-09-12T16:31:56;6.70;;;3.15;;
65558;SDS011;52203;51.998;5.140;2022-09-12T16:34:21;6.15;;;2.97;;
65558;SDS011;52203;51.998;5.140;2022-09-12T16:36:47;5.90;;;3.50;;
65558;SDS011;52203;51.998;5.140;2022-09-12T16:39:12;5.97;;;2.95;;
65558;SDS011;52203;51.998;5.140;2022-09-12T16:41:38;4.85;;;2.70;;
65558;SDS011;52203;51.998;5.140;2022-09-12T16:44:06;4.53;;;2.42;;
65558;SDS011;52203;51.998;5.140;2022-09-12T16:46:32;5.05;;;2.90;;
65558;SDS011;52203;51.998;5.140;2022-09-12T16:48:57;5.85;;;2.83;;
65558;SDS011;52203;51.998;5.140;2022-09-12T16:51:28;4.97;;;3.10;;
65558;SDS011;52203;51.998;5.140;2022-09-12T16:53:56;4.05;;;2.90;;
65558;SDS011;52203;51.998;5.140;2022-09-12T16:56:22;3.65;;;2.60;;
65558;SDS011;52203;51.998;5.140;2022-09-12T16:58:48;7.47;;;2.85;;
65558;SDS011;52203;51.998;5.140;2022-09-12T17:01:14;4.22;;;2.85;;
65558;SDS011;52203;51.998;5.140;2022-09-12T17:03:41;4.35;;;2.95;;
65558;SDS011;52203;51.998;5.140;2022-09-12T17:06:08;5.80;;;2.90;;
65558;SDS011;52203;51.998;5.140;2022-09-12T17:08:39;4.75;;;2.72;;
65558;SDS011;52203;51.998;5.140;2022-09-12T17:11:08;4.20;;;2.70;;
65558;SDS011;52203;51.998;5.140;2022-09-12T17:13:34;6.32;;;2.70;;
65558;SDS011;52203;51.998;5.140;2022-09-12T17:16:08;5.35;;;3.00;;
65558;SDS011;52203;51.998;5.140;2022-09-12T17:18:36;3.42;;;2.60;;
65558;SDS011;52203;51.998;5.140;2022-09-12T17:21:02;4.70;;;3.13;;
65558;SDS011;52203;51.998;5.140;2022-09-12T17:23:28;5.05;;;3.38;;
65558;SDS011;52203;51.998;5.140;2022-09-12T17:25:54;4.97;;;2.85;;
65558;SDS011;52203;51.998;5.140;2022-09-12T17:28:20;5.95;;;3.30;;
65558;SDS011;52203;51.998;5.140;2022-09-12T17:30:45;5.80;;;3.30;;
65558;SDS011;52203;51.998;5.140;2022-09-12T17:33:11;6.07;;;3.00;;
65558;SDS011;52203;51.998;5.140;2022-09-12T17:35:38;4.60;;;3.25;;
65558;SDS011;52203;51.998;5.140;2022-09-12T17:38:06;4.82;;;3.30;;
65558;SDS011;52203;51.998;5.140;2022-09-12T17:40:34;4.40;;;2.90;;